sensor_id;sensor_type;location;lat;lon;timestamp;pressure;altitude;pressure_sealevel;temperature;humidity
56038;BME280;41907;47.848;9.000;2022-11-14T00:01:18;95821.97;;;5.69;100.00
56038;BME280;41907;47.848;9.000;2022-11-14T00:03:44;95822.22;;;5.67;100.00
56038;BME280;41907;47.848;9.000;2022-11-14T00:06:13;95816.97;;;5.62;100.00
56038;BME280;41907;47.848;9.000;2022-11-14T00:08:38;95818.03;;;5.66;100.00
56038;BME280;41907;47.848;9.000;2022-11-14T00:11:04;95819.56;;;5.72;100.00
56038;BME280;41907;47.848;9.000;2022-11-14T00:13:29;95808.47;;;5.70;100.00
56038;BME280;41907;47.848;9.000;2022-11-14T00:15:54;95807.41;;;5.71;100.00
56038;BME280;41907;47.848;9.000;2022-11-14T00:18:20;95797.56;;;5.77;100.00
56038;BME280;41907;47.848;9.000;2022-11-14T00:20:50;95805.50;;;5.77;100.00
56038;BME280;41907;47.848;9.000;2022-11-14T00:23:16;95795.94;;;5.81;100.00
56038;BME280;41907;47.848;9.000;2022-11-14T00:25:45;95799.91;;;5.83;100.00
56038;BME280;41907;47.848;9.000;2022-11-14T00:28:11;95806.28;;;5.82;100.00
56038;BME280;41907;47.848;9.000;2022-11-14T00:30:36;95804.44;;;5.78;100.00
56038;BME280;41907;47.848;9.000;2022-11-14T00:33:02;95800.41;;;5.85;100.00
56038;BME280;41907;47.848;9.000;2022-11-14T00:35:27;95800.47;;;5.80;100.00
56038;BME280;41907;47.848;9.000;2022-11-14T00:37:52;95800.13;;;5.87;100.00
56038;BME280;41907;47.848;9.000;2022-11-14T00:40:18;95795.41;;;5.89;100.00
56038;BME280;41907;47.848;9.000;2022-11-14T00:42:43;95799.56;;;5.95;100.00
56038;BME280;41907;47.848;9.000;2022-11-14T00:45:09;95798.50;;;6.01;100.00
56038;BME280;41907;47.848;9.000;2022-11-14T00:47:35;95795.84;;;6.01;100.00
56038;BME280;41907;47.848;9.000;2022-11-14T00:50:00;95796.63;;;6.02;100.00
56038;BME280;41907;47.848;9.000;2022-11-14T00:52:26;95790.28;;;6.03;100.00
56038;BME280;41907;47.848;9.000;2022-11-14T00:54:51;95794.00;;;6.02;100.00
56038;BME280;41907;47.848;9.000;2022-11-14T00:57:16;95787.84;;;6.06;100.00
56038;BME280;41907;47.848;9.000;2022-11-14T00:59:42;95779.91;;;6.06;100.00
56038;BME280;41907;47.848;9.000;2022-11-14T01:02:07;95775.69;;;6.05;100.00
56038;BME280;41907;47.848;9.000;2022-11-14T01:04:33;95766.66;;;6.06;100.00
56038;BME280;41907;47.848;9.000;2022-11-14T01:06:58;95766.94;;;6.05;100.00
56038;BME280;41907;47.848;9.000;2022-11-14T01:09:24;95756.88;;;6.07;100.00
56038;BME280;41907;47.848;9.000;2022-11-14T01:11:49;95760.31;;;6.07;100.00
56038;BME280;41907;47.848;9.000;2022-11-14T01:14:14;95758.69;;;6.11;100.00
56038;BME280;41907;47.848;9.000;2022-11-14T01:16:40;95747.53;;;6.14;100.00
56038;BME280;41907;47.848;9.000;2022-11-14T01:19:05;95753.63;;;6.15;100.00
56038;BME280;41907;47.848;9.000;2022-11-14T01:21:31;95756.88;;;6.07;100.00
56038;BME280;41907;47.848;9.000;2022-11-14T01:23:56;95759.25;;;6.08;100.00
56038;BME280;41907;47.848;9.000;2022-11-14T01:26:21;95754.47;;;6.10;100.00
56038;BME280;41907;47.848;9.000;2022-11-14T01:28:47;95752.59;;;6.11;100.00
56038;BME280;41907;47.848;9.000;2022-11-14T01:31:18;95756.06;;;6.11;100.00
56038;BME280;41907;47.848;9.000;2022-11-14T01:33:48;95753.94;;;6.08;100.00
56038;BME280;41907;47.848;9.000;2022-11-14T01:36:13;95752.50;;;5.87;100.00
56038;BME280;41907;47.848;9.000;2022-11-14T01:38:39;95756.81;;;5.78;100.00
56038;BME280;41907;47.848;9.000;2022-11-14T01:41:04;95768.56;;;5.61;100.00
56038;BME280;41907;47.848;9.000;2022-11-14T01:43:32;95771.81;;;5.48;100.00
56038;BME280;41907;47.848;9.000;2022-11-14T01:46:21;95772.66;;;5.39;100.00
56038;BME280;41907;47.848;9.000;2022-11-14T01:51:44;95787.09;;;5.07;100.00
56038;BME280;41907;47.848;9.000;2022-11-14T01:54:23;95786.06;;;5.08;100.00
56038;BME280;41907;47.848;9.000;2022-11-14T01:56:54;95774.06;;;5.26;100.00
56038;BME280;41907;47.848;9.000;2022-11-14T01:59:24;95771.31;;;5.41;100.00
56038;BME280;41907;47.848;9.000;2022-11-14T02:01:52;95762.84;;;5.44;100.00
56038;BME280;41907;47.848;9.000;2022-11-14T02:04:23;95756.72;;;5.54;100.00
56038;BME280;41907;47.848;9.000;2022-11-14T02:06:51;95742.91;;;5.57;100.00
56038;BME280;41907;47.848;9.000;2022-11-14T02:09:18;95742.06;;;5.67;100.00
56038;BME280;41907;47.848;9.000;2022-11-14T02:11:44;95737.00;;;5.75;100.00
56038;BME280;41907;47.848;9.000;2022-11-14T02:14:10;95720.78;;;5.82;100.00
56038;BME280;41907;47.848;9.000;2022-11-14T02:16:38;95720.75;;;5.92;100.00
56038;BME280;41907;47.848;9.000;2022-11-14T02:19:05;95726.56;;;5.94;100.00
56038;BME280;41907;47.848;9.000;2022-11-14T02:21:30;95730.75;;;5.95;100.00
56038;BME280;41907;47.848;9.000;2022-11-14T02:23:56;95731.28;;;5.97;100.00
56038;BME280;41907;47.848;9.000;2022-11-14T02:26:21;95732.81;;;6.03;100.00
56038;BME280;41907;47.848;9.000;2022-11-14T02:28:47;95743.41;;;6.03;100.00
56038;BME280;41907;47.848;9.000;2022-11-14T02:31:13;95742.31;;;6.04;100.00
56038;BME280;41907;47.848;9.000;2022-11-14T02:33:40;95746.28;;;6.07;100.00
56038;BME280;41907;47.848;9.000;2022-11-14T02:36:05;95747.91;;;6.03;100.00
56038;BME280;41907;47.848;9.000;2022-11-14T02:38:31;95744.81;;;5.85;100.00
56038;BME280;41907;47.848;9.000;2022-11-14T02:40:58;95738.53;;;5.76;100.00
56038;BME280;41907;47.848;9.000;2022-11-14T02:43:24;95741.97;;;5.77;100.00
56038;BME280;41907;47.848;9.000;2022-11-14T02:45:50;95744.88;;;5.80;100.00
56038;BME280;41907;47.848;9.000;2022-11-14T02:48:15;95749.72;;;5.68;100.00
56038;BME280;41907;47.848;9.000;2022-11-14T02:50:41;95751.03;;;5.71;100.00
56038;BME280;41907;47.848;9.000;2022-11-14T02:53:06;95752.09;;;5.70;100.00
56038;BME280;41907;47.848;9.000;2022-11-14T02:55:32;95749.50;;;5.65;100.00
56038;BME280;41907;47.848;9.000;2022-11-14T02:57:57;95745.28;;;5.64;100.00
56038;BME280;41907;47.848;9.000;2022-11-14T03:00:23;95743.94;;;5.66;100.00
56038;BME280;41907;47.848;9.000;2022-11-14T03:02:48;95751.56;;;5.68;100.00
56038;BME280;41907;47.848;9.000;2022-11-14T03:05:14;95739.66;;;5.70;100.00
56038;BME280;41907;47.848;9.000;2022-11-14T03:07:39;95741.84;;;5.58;100.00
56038;BME280;41907;47.848;9.000;2022-11-14T03:10:05;95747.16;;;5.58;100.00
56038;BME280;41907;47.848;9.000;2022-11-14T03:12:31;95752.75;;;5.56;100.00
56038;BME280;41907;47.848;9.000;2022-11-14T03:14:56;95749.19;;;5.71;100.00
56038;BME280;41907;47.848;9.000;2022-11-14T03:17:22;95740.91;;;5.83;100.00
56038;BME280;41907;47.848;9.000;2022-11-14T03:19:49;95745.63;;;5.91;100.00
56038;BME280;41907;47.848;9.000;2022-11-14T03:22:15;95746.16;;;5.93;100.00
56038;BME280;41907;47.848;9.000;2022-11-14T03:24:40;95755.41;;;5.85;100.00
56038;BME280;41907;47.848;9.000;2022-11-14T03:27:05;95756.53;;;5.79;100.00
56038;BME280;41907;47.848;9.000;2022-11-14T03:29:31;95756.25;;;5.81;100.00
56038;BME280;41907;47.848;9.000;2022-11-14T03:31:56;95752.22;;;5.93;100.00
56038;BME280;41907;47.848;9.000;2022-11-14T03:34:22;95741.84;;;5.97;100.00
56038;BME280;41907;47.848;9.000;2022-11-14T03:36:47;95751.06;;;6.05;100.00
56038;BME280;41907;47.848;9.000;2022-11-14T03:39:12;95739.66;;;6.09;100.00
56038;BME280;41907;47.848;9.000;2022-11-14T03:41:38;95746.97;;;6.17;100.00
56038;BME280;41907;47.848;9.000;2022-11-14T03:44:03;95742.94;;;6.25;100.00
56038;BME280;41907;47.848;9.000;2022-11-14T03:46:28;95744.50;;;6.26;100.00
56038;BME280;41907;47.848;9.000;2022-11-14T03:48:54;95745.81;;;6.28;100.00
56038;BME280;41907;47.848;9.000;2022-11-14T03:51:19;95735.50;;;6.27;100.00
56038;BME280;41907;47.848;9.000;2022-11-14T03:53:45;95731.25;;;6.31;100.00
56038;BME280;41907;47.848;9.000;2022-11-14T03:56:10;95736.53;;;6.31;100.00
56038;BME280;41907;47.848;9.000;2022-11-14T03:58:35;95728.59;;;6.31;100.00
56038;BME280;41907;47.848;9.000;2022-11-14T04:01:01;95734.16;;;6.29;100.00
56038;BME280;41907;47.848;9.000;2022-11-14T04:03:28;95739.19;;;6.31;100.00
56038;BME280;41907;47.848;9.000;2022-11-14T04:05:53;95733.88;;;6.31;100.00
56038;BME280;41907;47.848;9.000;2022-11-14T04:08:18;95732.53;;;6.33;100.00
56038;BME280;41907;47.848;9.000;2022-11-14T04:10:47;95730.09;;;6.37;100.00
56038;BME280;41907;47.848;9.000;2022-11-14T04:13:13;95735.91;;;6.39;100.00
56038;BME280;41907;47.848;9.000;2022-11-14T04:15:39;95729.28;;;6.42;100.00
56038;BME280;41907;47.848;9.000;2022-11-14T04:18:04;95732.75;;;6.37;100.00
56038;BME280;41907;47.848;9.000;2022-11-14T04:20:29;95728.06;;;6.29;100.00
56038;BME280;41907;47.848;9.000;2022-11-14T04:22:55;95736.06;;;6.24;100.00
56038;BME280;41907;47.848;9.000;2022-11-14T04:25:20;95727.09;;;6.20;100.00
56038;BME280;41907;47.848;9.000;2022-11-14T04:27:45;95720.25;;;6.14;100.00
56038;BME280;41907;47.848;9.000;2022-11-14T04:30:11;95717.91;;;6.12;100.00
56038;BME280;41907;47.848;9.000;2022-11-14T04:32:36;95712.09;;;6.10;100.00
56038;BME280;41907;47.848;9.000;2022-11-14T04:35:02;95716.88;;;6.08;100.00
56038;BME280;41907;47.848;9.000;2022-11-14T04:37:27;95698.63;;;6.07;100.00
56038;BME280;41907;47.848;9.000;2022-11-14T04:39:53;95711.59;;;6.08;100.00
56038;BME280;41907;47.848;9.000;2022-11-14T04:42:23;95699.69;;;6.06;100.00
56038;BME280;41907;47.848;9.000;2022-11-14T04:44:49;95710.00;;;6.07;100.00
56038;BME280;41907;47.848;9.000;2022-11-14T04:47:14;95708.91;;;6.13;100.00
56038;BME280;41907;47.848;9.000;2022-11-14T04:49:39;95700.97;;;6.13;100.00
56038;BME280;41907;47.848;9.000;2022-11-14T04:52:05;95708.56;;;6.20;100.00
56038;BME280;41907;47.848;9.000;2022-11-14T04:54:30;95702.69;;;6.23;100.00
56038;BME280;41907;47.848;9.000;2022-11-14T04:56:55;95698.94;;;6.29;100.00
56038;BME280;41907;47.848;9.000;2022-11-14T04:59:20;95696.84;;;6.26;100.00
56038;BME280;41907;47.848;9.000;2022-11-14T05:01:46;95689.41;;;6.28;100.00
56038;BME280;41907;47.848;9.000;2022-11-14T05:04:11;95689.66;;;6.31;100.00
56038;BME280;41907;47.848;9.000;2022-11-14T05:06:36;95690.94;;;6.34;100.00
56038;BME280;41907;47.848;9.000;2022-11-14T05:09:02;95692.50;;;6.35;100.00
56038;BME280;41907;47.848;9.000;2022-11-14T05:11:27;95689.59;;;6.37;100.00
56038;BME280;41907;47.848;9.000;2022-11-14T05:13:53;95691.44;;;6.36;100.00
56038;BME280;41907;47.848;9.000;2022-11-14T05:16:18;95689.31;;;6.38;100.00
56038;BME280;41907;47.848;9.000;2022-11-14T05:18:43;95690.09;;;6.39;100.00
56038;BME280;41907;47.848;9.000;2022-11-14T05:21:13;95681.97;;;6.30;100.00
56038;BME280;41907;47.848;9.000;2022-11-14T05:23:39;95689.75;;;6.21;100.00
56038;BME280;41907;47.848;9.000;2022-11-14T05:26:07;95685.41;;;6.30;100.00
56038;BME280;41907;47.848;9.000;2022-11-14T05:28:33;95680.69;;;6.27;100.00
56038;BME280;41907;47.848;9.000;2022-11-14T05:31:03;95686.63;;;6.14;100.00
56038;BME280;41907;47.848;9.000;2022-11-14T05:33:29;95677.66;;;5.81;100.00
56038;BME280;41907;47.848;9.000;2022-11-14T05:35:54;95685.31;;;5.83;100.00
56038;BME280;41907;47.848;9.000;2022-11-14T05:38:19;95694.06;;;5.83;100.00
56038;BME280;41907;47.848;9.000;2022-11-14T05:40:45;95698.53;;;5.88;100.00
56038;BME280;41907;47.848;9.000;2022-11-14T05:43:10;95699.19;;;6.04;100.00
56038;BME280;41907;47.848;9.000;2022-11-14T05:45:35;95695.66;;;6.13;100.00
56038;BME280;41907;47.848;9.000;2022-11-14T05:48:00;95693.78;;;6.14;100.00
56038;BME280;41907;47.848;9.000;2022-11-14T05:50:26;95686.94;;;6.13;100.00
56038;BME280;41907;47.848;9.000;2022-11-14T05:52:51;95689.75;;;6.21;100.00
56038;BME280;41907;47.848;9.000;2022-11-14T05:55:16;95691.53;;;6.26;100.00
56038;BME280;41907;47.848;9.000;2022-11-14T05:57:42;95687.50;;;6.33;100.00
56038;BME280;41907;47.848;9.000;2022-11-14T06:00:08;95695.00;;;6.26;100.00
56038;BME280;41907;47.848;9.000;2022-11-14T06:02:34;95687.50;;;6.33;100.00
56038;BME280;41907;47.848;9.000;2022-11-14T06:04:59;95688.00;;;6.35;100.00
56038;BME280;41907;47.848;9.000;2022-11-14T06:07:24;95686.59;;;6.43;100.00
56038;BME280;41907;47.848;9.000;2022-11-14T06:09:50;95695.06;;;6.45;100.00
56038;BME280;41907;47.848;9.000;2022-11-14T06:12:15;95701.38;;;6.49;100.00
56038;BME280;41907;47.848;9.000;2022-11-14T06:14:40;95706.88;;;6.53;100.00
56038;BME280;41907;47.848;9.000;2022-11-14T06:17:06;95705.53;;;6.55;100.00
56038;BME280;41907;47.848;9.000;2022-11-14T06:19:31;95708.97;;;6.56;100.00
56038;BME280;41907;47.848;9.000;2022-11-14T06:21:56;95701.28;;;6.59;100.00
56038;BME280;41907;47.848;9.000;2022-11-14T06:24:22;95711.56;;;6.61;100.00
56038;BME280;41907;47.848;9.000;2022-11-14T06:26:47;95705.97;;;6.62;100.00
56038;BME280;41907;47.848;9.000;2022-11-14T06:29:13;95707.28;;;6.65;100.00
56038;BME280;41907;47.848;9.000;2022-11-14T06:31:38;95716.31;;;6.64;100.00
56038;BME280;41907;47.848;9.000;2022-11-14T06:34:04;95705.97;;;6.62;100.00
56038;BME280;41907;47.848;9.000;2022-11-14T06:36:30;95709.41;;;6.63;100.00
56038;BME280;41907;47.848;9.000;2022-11-14T06:38:55;95715.88;;;6.57;100.00
56038;BME280;41907;47.848;9.000;2022-11-14T06:41:21;95724.31;;;6.59;100.00
56038;BME280;41907;47.848;9.000;2022-11-14T06:43:51;95724.06;;;6.60;100.00
56038;BME280;41907;47.848;9.000;2022-11-14T06:46:21;95718.75;;;6.60;100.00
56038;BME280;41907;47.848;9.000;2022-11-14T06:48:47;95719.50;;;6.61;100.00
56038;BME280;41907;47.848;9.000;2022-11-14T06:51:14;95720.72;;;6.50;100.00
56038;BME280;41907;47.848;9.000;2022-11-14T06:53:41;95728.59;;;6.55;100.00
56038;BME280;41907;47.848;9.000;2022-11-14T06:56:16;95729.38;;;6.55;100.00
56038;BME280;41907;47.848;9.000;2022-11-14T06:58:44;95730.97;;;6.56;100.00
56038;BME280;41907;47.848;9.000;2022-11-14T07:03:42;95737.50;;;6.64;100.00
56038;BME280;41907;47.848;9.000;2022-11-14T07:06:10;95734.59;;;6.65;100.00
56038;BME280;41907;47.848;9.000;2022-11-14T07:08:36;95743.84;;;6.68;100.00
56038;BME280;41907;47.848;9.000;2022-11-14T07:11:04;95735.03;;;6.72;100.00
56038;BME280;41907;47.848;9.000;2022-11-14T07:13:30;95745.41;;;6.69;100.00
56038;BME280;41907;47.848;9.000;2022-11-14T07:15:55;95744.31;;;6.70;100.00
56038;BME280;41907;47.848;9.000;2022-11-14T07:18:20;95745.69;;;6.67;100.00
56038;BME280;41907;47.848;9.000;2022-11-14T07:20:46;95746.75;;;6.66;100.00
56038;BME280;41907;47.848;9.000;2022-11-14T07:23:12;95750.41;;;6.70;100.00
56038;BME280;41907;47.848;9.000;2022-11-14T07:25:38;95747.75;;;6.70;100.00
56038;BME280;41907;47.848;9.000;2022-11-14T07:28:04;95747.22;;;6.73;100.00
56038;BME280;41907;47.848;9.000;2022-11-14T07:30:29;95756.28;;;6.67;100.00
56038;BME280;41907;47.848;9.000;2022-11-14T07:32:56;95764.34;;;6.57;100.00
56038;BME280;41907;47.848;9.000;2022-11-14T07:35:22;95760.13;;;6.56;100.00
56038;BME280;41907;47.848;9.000;2022-11-14T07:37:48;95758.97;;;6.62;100.00
56038;BME280;41907;47.848;9.000;2022-11-14T07:40:14;95756.56;;;6.66;100.00
56038;BME280;41907;47.848;9.000;2022-11-14T07:42:39;95763.22;;;6.63;100.00
56038;BME280;41907;47.848;9.000;2022-11-14T07:45:05;95760.00;;;6.66;100.00
56038;BME280;41907;47.848;9.000;2022-11-14T07:47:30;95765.25;;;6.71;100.00
56038;BME280;41907;47.848;9.000;2022-11-14T07:49:56;95764.13;;;6.78;100.00
56038;BME280;41907;47.848;9.000;2022-11-14T07:52:21;95777.88;;;6.80;100.00
56038;BME280;41907;47.848;9.000;2022-11-14T07:54:46;95768.06;;;6.80;100.00
56038;BME280;41907;47.848;9.000;2022-11-14T07:57:12;95774.94;;;6.81;100.00
56038;BME280;41907;47.848;9.000;2022-11-14T07:59:37;95775.03;;;6.76;100.00
56038;BME280;41907;47.848;9.000;2022-11-14T08:02:03;95774.22;;;6.76;100.00
56038;BME280;41907;47.848;9.000;2022-11-14T08:04:28;95772.41;;;6.71;100.00
56038;BME280;41907;47.848;9.000;2022-11-14T08:06:54;95775.22;;;6.56;100.00
56038;BME280;41907;47.848;9.000;2022-11-14T08:09:19;95779.63;;;6.65;100.00
56038;BME280;41907;47.848;9.000;2022-11-14T08:11:44;95783.47;;;6.78;100.00
56038;BME280;41907;47.848;9.000;2022-11-14T08:14:14;95785.81;;;6.80;100.00
56038;BME280;41907;47.848;9.000;2022-11-14T08:16:39;95796.16;;;6.81;100.00
56038;BME280;41907;47.848;9.000;2022-11-14T08:19:05;95787.88;;;6.88;100.00
56038;BME280;41907;47.848;9.000;2022-11-14T08:21:30;95784.47;;;6.82;100.00
56038;BME280;41907;47.848;9.000;2022-11-14T08:23:55;95787.13;;;6.82;100.00
56038;BME280;41907;47.848;9.000;2022-11-14T08:26:21;95787.41;;;6.81;100.00
56038;BME280;41907;47.848;9.000;2022-11-14T08:28:46;95791.13;;;6.80;100.00
56038;BME280;41907;47.848;9.000;2022-11-14T08:31:12;95792.25;;;6.73;100.00
56038;BME280;41907;47.848;9.000;2022-11-14T08:33:40;95784.56;;;6.77;100.00
56038;BME280;41907;47.848;9.000;2022-11-14T08:36:06;95782.53;;;6.69;100.00
56038;BME280;41907;47.848;9.000;2022-11-14T08:38:33;95784.75;;;6.57;100.00
56038;BME280;41907;47.848;9.000;2022-11-14T08:41:02;95788.72;;;6.59;100.00
56038;BME280;41907;47.848;9.000;2022-11-14T08:43:29;95788.22;;;6.52;100.00
56038;BME280;41907;47.848;9.000;2022-11-14T08:45:58;95796.16;;;6.57;100.00
56038;BME280;41907;47.848;9.000;2022-11-14T08:48:24;95792.59;;;6.67;100.00
56038;BME280;41907;47.848;9.000;2022-11-14T08:50:50;95795.44;;;6.47;100.00
56038;BME280;41907;47.848;9.000;2022-11-14T08:53:15;95795.78;;;6.40;100.00
56038;BME280;41907;47.848;9.000;2022-11-14T08:55:44;95791.72;;;6.48;100.00
56038;BME280;41907;47.848;9.000;2022-11-14T08:58:10;95793.84;;;6.51;100.00
56038;BME280;41907;47.848;9.000;2022-11-14T09:00:36;95786.09;;;6.54;100.00
56038;BME280;41907;47.848;9.000;2022-11-14T09:03:09;95791.38;;;6.30;100.00
56038;BME280;41907;47.848;9.000;2022-11-14T09:05:35;95798.19;;;6.37;100.00
56038;BME280;41907;47.848;9.000;2022-11-14T09:08:02;95798.78;;;6.28;100.00
56038;BME280;41907;47.848;9.000;2022-11-14T09:10:27;95804.19;;;6.18;100.00
56038;BME280;41907;47.848;9.000;2022-11-14T09:12:56;95805.84;;;6.09;100.00
56038;BME280;41907;47.848;9.000;2022-11-14T09:15:22;95804.72;;;6.15;100.00
56038;BME280;41907;47.848;9.000;2022-11-14T09:17:51;95805.00;;;6.14;100.00
56038;BME280;41907;47.848;9.000;2022-11-14T09:20:17;95802.06;;;6.15;100.00
56038;BME280;41907;47.848;9.000;2022-11-14T09:22:43;95808.22;;;6.06;100.00
56038;BME280;41907;47.848;9.000;2022-11-14T09:25:09;95805.56;;;6.11;100.00
56038;BME280;41907;47.848;9.000;2022-11-14T09:27:34;95810.63;;;6.07;100.00
56038;BME280;41907;47.848;9.000;2022-11-14T09:29:59;95810.88;;;6.06;100.00
56038;BME280;41907;47.848;9.000;2022-11-14T09:32:25;95812.25;;;6.03;100.00
56038;BME280;41907;47.848;9.000;2022-11-14T09:34:50;95811.69;;;6.06;100.00
56038;BME280;41907;47.848;9.000;2022-11-14T09:37:15;95804.00;;;6.05;100.00
56038;BME280;41907;47.848;9.000;2022-11-14T09:39:41;95798.16;;;6.08;100.00
56038;BME280;41907;47.848;9.000;2022-11-14T09:44:56;95805.03;;;6.09;100.00
56038;BME280;41907;47.848;9.000;2022-11-14T09:47:42;95802.41;;;6.09;100.00
56038;BME280;41907;47.848;9.000;2022-11-14T09:50:25;95812.91;;;6.19;100.00
56038;BME280;41907;47.848;9.000;2022-11-14T09:53:18;95814.69;;;6.28;100.00
56038;BME280;41907;47.848;9.000;2022-11-14T09:55:46;95804.34;;;6.32;100.00
56038;BME280;41907;47.848;9.000;2022-11-14T09:58:17;95809.25;;;6.44;100.00
56038;BME280;41907;47.848;9.000;2022-11-14T10:00:55;95810.00;;;6.49;100.00
56038;BME280;41907;47.848;9.000;2022-11-14T10:03:52;95807.25;;;6.59;100.00
56038;BME280;41907;47.848;9.000;2022-11-14T10:06:28;95802.06;;;6.73;100.00
56038;BME280;41907;47.848;9.000;2022-11-14T10:14:54;95805.78;;;7.20;100.00
56038;BME280;41907;47.848;9.000;2022-11-14T10:20:26;95800.19;;;7.45;100.00
56038;BME280;41907;47.848;9.000;2022-11-14T10:23:20;95799.88;;;7.65;100.00
56038;BME280;41907;47.848;9.000;2022-11-14T10:26:01;95794.44;;;7.75;100.00
56038;BME280;41907;47.848;9.000;2022-11-14T10:28:52;95788.69;;;7.87;100.00
56038;BME280;41907;47.848;9.000;2022-11-14T10:34:23;95807.72;;;7.75;100.00
56038;BME280;41907;47.848;9.000;2022-11-14T10:37:10;95803.66;;;7.83;100.00
56038;BME280;41907;47.848;9.000;2022-11-14T10:39:53;95807.38;;;7.82;100.00
56038;BME280;41907;47.848;9.000;2022-11-14T10:42:31;95810.81;;;7.82;100.00
56038;BME280;41907;47.848;9.000;2022-11-14T10:45:01;95813.81;;;7.76;100.00
56038;BME280;41907;47.848;9.000;2022-11-14T10:47:32;95812.19;;;7.80;100.00
56038;BME280;41907;47.848;9.000;2022-11-14T10:50:13;95816.63;;;7.84;100.00
56038;BME280;41907;47.848;9.000;2022-11-14T10:52:41;95811.38;;;7.79;100.00
56038;BME280;41907;47.848;9.000;2022-11-14T10:55:16;95813.91;;;7.90;100.00
56038;BME280;41907;47.848;9.000;2022-11-14T10:57:44;95799.31;;;7.87;100.00
56038;BME280;41907;47.848;9.000;2022-11-14T11:00:15;95800.09;;;8.06;100.00
56038;BME280;41907;47.848;9.000;2022-11-14T11:02:55;95791.84;;;8.08;100.00
56038;BME280;41907;47.848;9.000;2022-11-14T11:05:24;95796.88;;;8.09;100.00
56038;BME280;41907;47.848;9.000;2022-11-14T11:07:52;95797.22;;;8.03;100.00
56038;BME280;41907;47.848;9.000;2022-11-14T11:10:40;95788.94;;;8.23;100.00
56038;BME280;41907;47.848;9.000;2022-11-14T11:13:39;95787.94;;;8.38;100.00
56038;BME280;41907;47.848;9.000;2022-11-14T11:16:12;95782.34;;;8.53;100.00
56038;BME280;41907;47.848;9.000;2022-11-14T11:18:37;95787.38;;;8.54;100.00
56038;BME280;41907;47.848;9.000;2022-11-14T11:23:32;95789.34;;;8.63;100.00
56038;BME280;41907;47.848;9.000;2022-11-14T11:26:14;95780.47;;;8.53;100.00
56038;BME280;41907;47.848;9.000;2022-11-14T11:28:40;95775.28;;;8.48;100.00
56038;BME280;41907;47.848;9.000;2022-11-14T11:31:10;95782.69;;;8.65;100.00
56038;BME280;41907;47.848;9.000;2022-11-14T11:33:37;95787.19;;;8.78;100.00
56038;BME280;41907;47.848;9.000;2022-11-14T11:36:17;95791.53;;;8.88;100.00
56038;BME280;41907;47.848;9.000;2022-11-14T11:38:44;95792.75;;;8.95;100.00
56038;BME280;41907;47.848;9.000;2022-11-14T11:41:26;95792.25;;;9.07;100.00
56038;BME280;41907;47.848;9.000;2022-11-14T11:43:58;95792.84;;;9.18;100.00
56038;BME280;41907;47.848;9.000;2022-11-14T11:46:28;95796.88;;;9.29;100.00
56038;BME280;41907;47.848;9.000;2022-11-14T11:49:02;95786.69;;;9.45;100.00
56038;BME280;41907;47.848;9.000;2022-11-14T11:51:31;95784.81;;;9.59;100.00
56038;BME280;41907;47.848;9.000;2022-11-14T11:54:03;95775.91;;;9.63;100.00
56038;BME280;41907;47.848;9.000;2022-11-14T11:56:34;95780.63;;;9.66;100.00
56038;BME280;41907;47.848;9.000;2022-11-14T11:59:18;95778.84;;;9.76;100.00
56038;BME280;41907;47.848;9.000;2022-11-14T12:01:46;95786.09;;;9.84;100.00
56038;BME280;41907;47.848;9.000;2022-11-14T12:04:11;95774.66;;;9.83;100.00
56038;BME280;41907;47.848;9.000;2022-11-14T12:06:53;95783.22;;;9.94;100.00
56038;BME280;41907;47.848;9.000;2022-11-14T12:09:28;95769.06;;;10.07;100.00
56038;BME280;41907;47.848;9.000;2022-11-14T12:12:03;95768.41;;;10.24;100.00
56038;BME280;41907;47.848;9.000;2022-11-14T12:20:12;95753.38;;;10.90;100.00
56038;BME280;41907;47.848;9.000;2022-11-14T12:31:31;95751.97;;;11.40;100.00
56038;BME280;41907;47.848;9.000;2022-11-14T12:34:00;95753.38;;;11.64;100.00
56038;BME280;41907;47.848;9.000;2022-11-14T12:36:29;95759.72;;;11.76;100.00
56038;BME280;41907;47.848;9.000;2022-11-14T12:38:56;95757.38;;;11.83;100.00
56038;BME280;41907;47.848;9.000;2022-11-14T12:41:28;95762.88;;;11.87;100.00
56038;BME280;41907;47.848;9.000;2022-11-14T12:58:14;95765.81;;;11.60;100.00
56038;BME280;41907;47.848;9.000;2022-11-14T13:05:56;95759.09;;;11.14;100.00
56038;BME280;41907;47.848;9.000;2022-11-14T13:11:32;95759.75;;;11.11;100.00
56038;BME280;41907;47.848;9.000;2022-11-14T13:14:18;95761.03;;;11.22;100.00
56038;BME280;41907;47.848;9.000;2022-11-14T13:19:53;95760.41;;;11.42;100.00
56038;BME280;41907;47.848;9.000;2022-11-14T13:22:39;95753.50;;;11.33;100.00
56038;BME280;41907;47.848;9.000;2022-11-14T13:27:36;95753.34;;;11.29;100.00
56038;BME280;41907;47.848;9.000;2022-11-14T13:30:05;95741.38;;;11.09;100.00
56038;BME280;41907;47.848;9.000;2022-11-14T13:40:55;95728.53;;;10.41;100.00
56038;BME280;41907;47.848;9.000;2022-11-14T13:44:03;95734.78;;;10.36;100.00
56038;BME280;41907;47.848;9.000;2022-11-14T13:51:58;95741.69;;;10.37;100.00
56038;BME280;41907;47.848;9.000;2022-11-14T13:54:24;95743.13;;;10.43;100.00
56038;BME280;41907;47.848;9.000;2022-11-14T13:56:57;95748.28;;;10.40;100.00
56038;BME280;41907;47.848;9.000;2022-11-14T14:13:43;95760.75;;;10.53;100.00
56038;BME280;41907;47.848;9.000;2022-11-14T14:19:09;95750.69;;;10.50;100.00
56038;BME280;41907;47.848;9.000;2022-11-14T14:21:46;95753.81;;;10.43;100.00
56038;BME280;41907;47.848;9.000;2022-11-14T14:32:18;95758.97;;;10.18;100.00
56038;BME280;41907;47.848;9.000;2022-11-14T14:34:44;95758.34;;;10.21;100.00
56038;BME280;41907;47.848;9.000;2022-11-14T14:37:18;95751.94;;;10.22;100.00
56038;BME280;41907;47.848;9.000;2022-11-14T14:40:01;95750.97;;;10.18;100.00
56038;BME280;41907;47.848;9.000;2022-11-14T14:42:38;95758.28;;;10.12;100.00
56038;BME280;41907;47.848;9.000;2022-11-14T14:45:13;95764.34;;;10.04;100.00
56038;BME280;41907;47.848;9.000;2022-11-14T14:47:42;95763.84;;;10.02;100.00
56038;BME280;41907;47.848;9.000;2022-11-14T14:50:20;95759.25;;;9.94;100.00